Time;durP1;ratioP1;P1;durP2;ratioP2;P2;SDS_P1;SDS_P2;PMS_P1;PMS_P2;Temp;Humidity;BMP_temperature;BMP_pressure;BME280_temperature;BME280_humidity;BME280_pressure;Samples;Min_cycle;Max_cycle;Signal;HPM_P1;HPM_P2
2022/06/30 00:00:13;;;;;;;6.45;2.45;;;;;;;26.50;34.29;98577.09;4994360;28;20462;-74
2022/06/30 00:02:39;;;;;;;5.05;2.40;;;;;;;26.51;34.10;98573.41;4994487;28;20046;-74
2022/06/30 00:05:05;;;;;;;5.35;2.83;;;;;;;26.49;34.25;98578.97;4994032;28;20030;-74
2022/06/30 00:07:30;;;;;;;4.60;2.30;;;;;;;26.48;34.16;98576.53;4993896;28;20061;-74
2022/06/30 00:09:56;;;;;;;5.53;2.67;;;;;;;26.47;34.41;98577.56;4994098;28;20086;-74
2022/06/30 00:12:21;;;;;;;4.18;2.53;;;;;;;26.33;34.62;98576.91;4977744;28;20031;-75
2022/06/30 00:14:46;;;;;;;5.18;2.80;;;;;;;26.21;34.86;98576.03;4993637;28;20073;-76
2022/06/30 00:17:12;;;;;;;4.90;2.70;;;;;;;26.27;34.57;98583.16;4994151;28;20027;-76
2022/06/30 00:19:37;;;;;;;6.82;2.53;;;;;;;26.20;34.80;98585.88;4994057;28;20038;-75
2022/06/30 00:22:06;;;;;;;6.32;2.50;;;;;;;26.23;34.91;98584.63;4978274;28;20461;-75
2022/06/30 00:24:32;;;;;;;7.95;2.70;;;;;;;26.12;34.90;98570.94;4978472;28;20477;-75
2022/06/30 00:26:57;;;;;;;5.70;2.70;;;;;;;26.21;35.39;98584.03;4995285;28;20059;-76
2022/06/30 00:29:23;;;;;;;7.18;2.63;;;;;;;26.18;35.30;98591.47;4994397;28;20034;-74
2022/06/30 00:31:48;;;;;;;6.00;2.60;;;;;;;26.15;35.67;98586.53;4977281;28;20034;-74
2022/06/30 00:34:14;;;;;;;6.57;2.60;;;;;;;26.11;35.70;98584.56;4977478;28;20061;-75
2022/06/30 00:36:39;;;;;;;5.70;2.70;;;;;;;26.12;35.56;98597.69;4993420;28;20031;-76
2022/06/30 00:39:05;;;;;;;4.32;2.50;;;;;;;26.12;35.64;98596.88;4977247;28;20482;-74
2022/06/30 00:41:30;;;;;;;6.28;2.63;;;;;;;26.08;35.67;98587.69;4976894;28;20077;-76
2022/06/30 00:43:56;;;;;;;5.15;2.60;;;;;;;26.07;35.61;98588.72;4977331;28;20033;-75
2022/06/30 00:46:22;;;;;;;7.65;2.95;;;;;;;26.10;35.96;98591.75;4993420;28;20100;-75
2022/06/30 00:48:47;;;;;;;7.13;2.88;;;;;;;26.10;36.04;98596.28;4993298;28;20042;-76
2022/06/30 00:51:13;;;;;;;6.80;2.70;;;;;;;26.08;35.71;98593.03;4976939;28;20034;-76
2022/06/30 00:53:40;;;;;;;4.75;2.50;;;;;;;26.04;36.03;98595.31;4976926;28;20054;-76
2022/06/30 00:56:06;;;;;;;5.47;2.80;;;;;;;25.95;35.91;98592.09;4977217;28;20489;-76
2022/06/30 00:58:42;;;;;;;5.97;2.88;;;;;;;25.90;35.96;98599.13;4977185;28;20034;-76
2022/06/30 01:01:08;;;;;;;7.65;2.70;;;;;;;25.84;36.17;98590.13;4978261;28;20080;-76
2022/06/30 01:03:34;;;;;;;5.63;2.47;;;;;;;25.78;36.15;98591.00;4976718;28;20429;-73
2022/06/30 01:06:00;;;;;;;6.50;2.67;;;;;;;25.76;36.09;98591.22;4992709;28;20038;-75
2022/06/30 01:08:26;;;;;;;3.75;2.33;;;;;;;25.70;37.44;98589.44;4992459;28;20086;-71
2022/06/30 01:13:35;;;;;;;9.40;2.72;;;;;;;25.98;37.45;98596.19;4979692;28;20049;-72
2022/06/30 01:16:01;;;;;;;24.55;2.90;;;;;;;26.00;37.15;98600.28;4994015;28;20780;-80
2022/06/30 01:18:26;;;;;;;18.50;2.78;;;;;;;26.09;36.94;98611.53;4976503;28;20121;-72
2022/06/30 01:20:52;;;;;;;10.25;2.70;;;;;;;26.13;36.81;98609.22;4976505;28;20031;-73
2022/06/30 01:23:17;;;;;;;7.70;2.88;;;;;;;26.16;36.58;98609.59;4993060;28;20062;-73
2022/06/30 01:25:43;;;;;;;7.47;2.50;;;;;;;26.20;36.44;98604.59;4976805;28;20026;-73
2022/06/30 01:28:08;;;;;;;7.63;2.42;;;;;;;26.24;36.06;98605.00;4992432;28;20072;-73
2022/06/30 01:30:35;;;;;;;7.47;2.78;;;;;;;26.25;36.26;98607.47;4992613;28;20065;-72
2022/06/30 01:33:00;;;;;;;6.72;2.55;;;;;;;26.27;36.02;98609.91;4991937;28;20427;-72
2022/06/30 01:35:26;;;;;;;6.50;2.60;;;;;;;26.29;35.92;98608.63;4993953;28;20038;-72
2022/06/30 01:37:56;;;;;;;4.28;2.55;;;;;;;26.29;35.86;98613.19;4993669;28;20034;-72
2022/06/30 01:40:23;;;;;;;5.95;2.60;;;;;;;26.30;35.87;98609.47;4976916;28;20486;-73
2022/06/30 01:42:48;;;;;;;5.82;2.58;;;;;;;26.27;35.69;98604.56;4976081;28;20383;-73
2022/06/30 01:45:14;;;;;;;4.38;2.35;;;;;;;26.28;35.67;98604.34;4976255;28;20034;-72
2022/06/30 01:47:40;;;;;;;8.40;2.47;;;;;;;26.27;35.68;98610.72;4992430;28;20034;-72
2022/06/30 01:50:15;;;;;;;5.15;2.38;;;;;;;26.27;35.66;98601.88;4976199;28;20029;-72
2022/06/30 01:52:41;;;;;;;4.93;2.47;;;;;;;26.25;35.60;98607.47;4992358;28;20042;-72
2022/06/30 01:55:07;;;;;;;5.13;2.38;;;;;;;26.22;35.39;98607.06;4975926;28;20034;-73
2022/06/30 01:57:33;;;;;;;6.35;2.53;;;;;;;26.22;35.51;98601.72;4992122;28;20022;-72
2022/06/30 01:59:58;;;;;;;5.85;2.63;;;;;;;26.23;35.53;98606.03;4976032;28;20038;-74
2022/06/30 02:02:24;;;;;;;4.78;2.17;;;;;;;26.24;35.70;98597.78;4992251;28;20050;-71
2022/06/30 02:04:53;;;;;;;8.98;2.50;;;;;;;26.23;35.51;98604.16;4993226;28;20034;-72
2022/06/30 02:07:19;;;;;;;5.18;2.42;;;;;;;26.22;35.46;98604.38;4991446;28;20528;-72
2022/06/30 02:09:45;;;;;;;4.45;2.30;;;;;;;26.21;35.34;98605.44;4975497;28;20081;-73
2022/06/30 02:14:56;;;;;;;6.00;2.42;;;;;;;26.18;35.31;98601.34;4992341;28;20044;-72
2022/06/30 02:17:21;;;;;;;3.67;2.40;;;;;;;26.20;35.24;98603.81;4975747;28;20053;-72
2022/06/30 02:19:47;;;;;;;8.02;2.50;;;;;;;26.18;35.07;98604.81;4991178;28;20394;-72
2022/06/30 02:22:12;;;;;;;4.88;2.20;;;;;;;26.17;35.31;98605.88;4975652;28;20497;-72
2022/06/30 02:24:38;;;;;;;5.68;2.42;;;;;;;26.15;35.23;98602.59;4991728;28;20087;-72
2022/06/30 02:27:04;;;;;;;3.88;2.40;;;;;;;26.13;35.46;98604.69;4991782;28;20030;-72
2022/06/30 02:29:29;;;;;;;4.50;2.35;;;;;;;26.12;35.08;98608.38;4975441;28;20486;-72
2022/06/30 02:31:55;;;;;;;4.13;2.40;;;;;;;26.10;35.50;98610.47;4992703;28;20022;-72
2022/06/30 02:34:20;;;;;;;4.50;2.53;;;;;;;26.08;35.48;98607.22;4991622;28;20482;-72
2022/06/30 02:36:46;;;;;;;4.40;2.30;;;;;;;26.07;35.29;98608.25;4975529;28;20089;-72
2022/06/30 02:39:11;;;;;;;10.32;2.40;;;;;;;26.07;35.36;98604.75;4991667;28;20041;-73
2022/06/30 02:41:37;;;;;;;16.90;2.83;;;;;;;26.08;35.61;98601.84;4991235;28;20039;-72
2022/06/30 02:44:02;;;;;;;16.90;2.85;;;;;;;26.10;35.65;98609.66;4975611;28;20117;-72
2022/06/30 02:46:28;;;;;;;31.25;3.20;;;;;;;26.07;35.92;98610.09;4991671;28;20028;-73
2022/06/30 02:48:54;;;;;;;26.63;2.83;;;;;;;26.10;36.08;98612.34;4991757;28;20037;-72
2022/06/30 02:51:19;;;;;;;13.10;2.60;;;;;;;26.11;35.89;98611.31;4991557;28;20034;-73
2022/06/30 02:53:45;;;;;;;7.05;2.67;;;;;;;26.16;36.12;98609.59;4975222;28;20049;-71
2022/06/30 02:56:11;;;;;;;7.57;2.75;;;;;;;26.17;36.18;98602.38;4991799;28;20497;-72
2022/06/30 02:58:37;;;;;;;7.05;2.35;;;;;;;26.20;36.38;98601.13;4991542;28;20041;-71
2022/06/30 03:01:03;;;;;;;7.03;2.50;;;;;;;26.31;36.34;98605.72;4990747;28;20042;-73
2022/06/30 03:03:28;;;;;;;7.57;2.20;;;;;;;26.36;36.41;98593.34;4991331;28;20048;-73
2022/06/30 03:05:54;;;;;;;6.78;2.55;;;;;;;26.66;35.61;98600.63;4975587;28;20382;-73
2022/06/30 03:08:19;;;;;;;5.53;2.22;;;;;;;26.93;35.22;98600.31;4992411;28;20473;-73
2022/06/30 03:10:45;;;;;;;3.55;2.60;;;;;;;27.20;35.01;98598.06;4991467;28;20031;-73
2022/06/30 03:13:10;;;;;;;7.57;2.40;;;;;;;27.50;34.53;98599.06;4990630;28;20197;-73
2022/06/30 03:15:36;;;;;;;5.57;2.35;;;;;;;27.80;34.07;98596.31;4975558;28;20034;-73
2022/06/30 03:18:01;;;;;;;9.05;2.58;;;;;;;28.11;33.51;98597.84;4991206;28;20173;-73
2022/06/30 03:20:27;;;;;;;9.68;2.38;;;;;;;28.41;33.36;98598.75;4993237;28;20113;-73
2022/06/30 03:22:52;;;;;;;7.47;2.20;;;;;;;28.71;32.47;98603.94;4978900;28;20034;-73
2022/06/30 03:25:18;;;;;;;26.27;2.67;;;;;;;28.92;32.15;98596.28;4996193;28;20474;-73
2022/06/30 03:27:43;;;;;;;15.15;2.60;;;;;;;29.23;31.68;98595.81;4978951;28;20113;-72
2022/06/30 03:30:09;;;;;;;5.20;2.55;;;;;;;29.48;31.03;98589.25;5011989;28;20022;-73
2022/06/30 03:32:35;;;;;;;8.32;2.35;;;;;;;29.82;30.73;98591.13;5013938;28;20069;-73
2022/06/30 03:35:00;;;;;;;7.28;2.42;;;;;;;30.16;30.23;98588.38;4997969;28;20072;-72
2022/06/30 03:37:26;;;;;;;4.75;2.20;;;;;;;30.49;29.49;98593.69;5014140;28;20104;-72
2022/06/30 03:39:51;;;;;;;8.90;2.25;;;;;;;30.99;29.12;98591.03;5016007;28;20084;-79
2022/06/30 03:42:17;;;;;;;5.80;2.40;;;;;;;31.53;27.99;98592.88;4998540;28;20034;-83
2022/06/30 03:44:42;;;;;;;5.57;2.40;;;;;;;31.87;27.44;98598.78;5016836;28;20508;-87
2022/06/30 03:47:09;;;;;;;6.88;2.30;;;;;;;32.35;27.49;98611.50;5014746;28;20096;-80
2022/06/30 03:49:34;;;;;;;3.75;2.13;;;;;;;32.72;27.01;98622.25;4998148;28;20100;-80
2022/06/30 03:52:00;;;;;;;6.75;2.00;;;;;;;32.91;26.67;98621.75;4997976;28;20034;-80
2022/06/30 03:54:27;;;;;;;9.80;2.45;;;;;;;33.26;26.40;98620.25;5014125;28;20397;-80
2022/06/30 03:56:53;;;;;;;6.35;2.47;;;;;;;33.57;25.60;98604.00;5014071;28;20429;-81
2022/06/30 03:59:18;;;;;;;3.47;2.30;;;;;;;33.95;25.36;98613.44;5015051;28;20041;-79
2022/06/30 04:01:44;;;;;;;4.18;1.95;;;;;;;34.39;24.85;98607.41;4998183;28;20034;-80
2022/06/30 04:04:09;;;;;;;6.68;2.00;;;;;;;34.72;25.06;98615.94;4997531;28;20029;-80
2022/06/30 04:06:35;;;;;;;3.65;1.90;;;;;;;35.23;24.69;98614.03;4997376;28;20473;-80
2022/06/30 04:09:00;;;;;;;9.55;2.08;;;;;;;35.66;23.68;98615.06;5014254;28;20069;-81
2022/06/30 04:11:26;;;;;;;9.57;2.40;;;;;;;36.09;23.42;98619.03;5014666;28;20409;-81
2022/06/30 04:13:51;;;;;;;4.72;2.50;;;;;;;36.63;22.63;98617.09;5014872;28;20072;-82
2022/06/30 04:16:17;;;;;;;9.15;2.30;;;;;;;37.13;21.91;98612.03;5014502;28;20038;-83
2022/06/30 04:18:43;;;;;;;6.10;1.80;;;;;;;37.73;21.01;98613.31;5015348;28;20046;-83
2022/06/30 04:21:09;;;;;;;12.32;2.25;;;;;;;38.32;20.58;98613.59;5015247;28;20299;-84
2022/06/30 04:23:35;;;;;;;12.50;2.10;;;;;;;38.83;19.65;98611.72;5014307;28;20459;-83
2022/06/30 04:26:00;;;;;;;11.57;2.17;;;;;;;39.44;19.00;98614.94;5014853;28;20040;-84
2022/06/30 04:28:26;;;;;;;11.45;1.90;;;;;;;39.92;18.61;98617.00;5013876;28;20030;-84
2022/06/30 04:33:35;;;;;;;4.88;1.88;;;;;;;40.93;17.14;98621.03;5015504;28;20131;-84
2022/06/30 04:36:01;;;;;;;6.65;1.90;;;;;;;41.32;17.52;98622.81;5017034;28;20037;-86
2022/06/30 04:38:26;;;;;;;7.93;2.20;;;;;;;41.84;17.20;98624.66;5013944;28;20030;-89
2022/06/30 04:43:36;;;;;;;3.92;1.88;;;;;;;42.86;16.12;98624.81;5000476;28;20117;-88
2022/06/30 04:46:01;;;;;;;8.38;1.92;;;;;;;43.27;15.60;98631.44;5014805;28;20034;-88
2022/06/30 04:48:27;;;;;;;4.93;2.07;;;;;;;43.69;15.15;98631.34;5013903;28;20044;-90
2022/06/30 04:50:52;;;;;;;4.63;1.90;;;;;;;44.11;14.46;98635.94;4997332;28;20053;-88
2022/06/30 04:53:18;;;;;;;7.80;2.10;;;;;;;44.49;14.47;98633.97;4982071;28;20123;-87
2022/06/30 04:55:43;;;;;;;6.90;1.90;;;;;;;44.90;13.71;98634.81;5015267;28;20481;-89
2022/06/30 04:58:08;;;;;;;6.40;1.77;;;;;;;45.28;13.20;98636.34;4998399;28;20034;-88
2022/06/30 05:00:34;;;;;;;4.40;1.90;;;;;;;45.66;13.45;98635.03;4998550;28;20072;-87
2022/06/30 05:02:59;;;;;;;7.87;2.23;;;;;;;45.97;12.80;98642.50;5015702;28;20030;-87
2022/06/30 05:05:26;;;;;;;6.80;2.13;;;;;;;46.36;12.87;98648.19;4990283;28;20042;-89
2022/06/30 05:07:51;;;;;;;6.07;1.90;;;;;;;46.71;12.00;98650.19;4998908;28;20049;-89
2022/06/30 05:10:17;;;;;;;6.80;2.07;;;;;;;47.05;11.92;98641.44;4984997;28;20037;-88
2022/06/30 05:12:42;;;;;;;11.93;2.17;;;;;;;47.34;11.38;98645.59;5000806;28;20037;-90
2022/06/30 05:15:08;;;;;;;7.23;2.40;;;;;;;47.67;11.54;98641.50;4997646;28;20038;-89
2022/06/30 05:17:34;;;;;;;8.55;2.60;;;;;;;48.00;11.21;98646.41;4996468;28;20022;-89
2022/06/30 05:20:00;;;;;;;9.02;2.38;;;;;;;48.33;11.29;98649.69;4997265;28;20513;-90
2022/06/30 05:22:27;;;;;;;11.93;2.20;;;;;;;48.62;11.05;98653.69;5013128;28;20101;-90
2022/06/30 05:27:37;;;;;;;9.75;2.00;;;;;;;49.20;10.25;98662.78;5006152;28;20033;-90
2022/06/30 05:30:03;;;;;;;8.17;1.70;;;;;;;49.39;10.03;98659.84;5017158;28;20033;-89
2022/06/30 05:32:28;;;;;;;7.70;2.00;;;;;;;49.62;9.85;98661.66;5019600;28;20129;-89
2022/06/30 05:34:54;;;;;;;7.00;1.70;;;;;;;49.76;10.04;98663.78;5003254;28;20042;-90
2022/06/30 05:37:19;;;;;;;7.10;1.80;;;;;;;49.97;10.19;98663.97;5018239;28;20030;-90
2022/06/30 05:39:45;;;;;;;6.90;1.70;;;;;;;50.18;9.43;98670.09;5003226;28;20037;-90
2022/06/30 05:42:13;;;;;;;7.40;1.60;;;;;;;50.32;9.65;98671.03;5004986;28;20293;-92
2022/06/30 05:44:40;;;;;;;7.60;1.70;;;;;;;50.43;9.90;98671.06;5020364;28;20029;-90
2022/06/30 05:47:05;;;;;;;9.00;2.35;;;;;;;50.57;9.61;98675.16;5004266;28;20030;-90
2022/06/30 05:49:34;;;;;;;7.25;1.98;;;;;;;50.67;9.83;98680.78;4997212;28;20474;-88
2022/06/30 05:51:59;;;;;;;7.28;1.80;;;;;;;50.73;9.38;98683.97;5016059;28;20042;-91
2022/06/30 05:54:25;;;;;;;10.20;1.70;;;;;;;50.80;8.91;98684.03;4995073;28;20038;-88
2022/06/30 05:56:50;;;;;;;9.33;1.63;;;;;;;50.77;9.87;98681.22;5014687;28;20268;-93
2022/06/30 05:59:16;;;;;;;11.87;1.90;;;;;;;50.68;9.28;98681.56;4997262;28;20808;-88
2022/06/30 06:01:41;;;;;;;9.95;1.95;;;;;;;50.76;9.03;98679.63;4995173;28;20274;-88
2022/06/30 06:04:07;;;;;;;11.65;1.70;;;;;;;50.81;8.83;98680.03;4995225;28;20040;-86
2022/06/30 06:06:33;;;;;;;9.75;1.80;;;;;;;50.90;9.54;98681.69;5014875;28;20046;-86
2022/06/30 06:09:01;;;;;;;6.90;1.83;;;;;;;50.93;9.81;98678.16;5014617;28;20050;-88
2022/06/30 06:11:26;;;;;;;9.15;1.65;;;;;;;50.96;9.12;98680.16;4996771;28;20505;-88
2022/06/30 06:13:52;;;;;;;8.60;1.58;;;;;;;50.99;8.89;98668.22;4996136;28;20044;-89
2022/06/30 06:16:17;;;;;;;12.63;1.88;;;;;;;50.95;9.10;98671.00;4999545;28;20052;-90
2022/06/30 06:18:43;;;;;;;8.88;1.58;;;;;;;50.95;9.49;98664.66;4997360;28;20080;-89
2022/06/30 06:21:08;;;;;;;5.68;1.27;;;;;;;50.88;9.26;98668.19;4993035;28;20034;-87
2022/06/30 06:23:34;;;;;;;4.40;1.45;;;;;;;50.85;9.42;98657.84;4992454;28;20030;-83
2022/06/30 06:25:59;;;;;;;9.57;1.63;;;;;;;50.83;9.47;98663.78;4993229;28;20478;-83
2022/06/30 06:31:09;;;;;;;4.57;1.40;;;;;;;50.71;9.16;98658.56;4992055;28;20137;-85
2022/06/30 06:33:35;;;;;;;;;;;;;;;50.43;9.26;98653.63;4992170;28;20034;-84
2022/06/30 06:36:01;;;;;;;9.53;1.60;;;;;;;50.53;9.42;98652.09;4992152;28;19921;-85
2022/06/30 06:38:27;;;;;;;7.45;1.60;;;;;;;50.48;9.67;98661.59;4992681;28;20443;-87
2022/06/30 06:40:53;;;;;;;9.25;1.67;;;;;;;50.42;8.90;98654.81;4992372;28;20527;-87
2022/06/30 06:43:18;;;;;;;5.65;1.55;;;;;;;50.33;9.68;98655.16;4993304;28;20034;-90
2022/06/30 06:45:44;;;;;;;7.07;1.65;;;;;;;50.22;9.31;98649.53;4998864;28;20504;-91
2022/06/30 06:48:09;;;;;;;10.05;1.88;;;;;;;50.15;9.90;98649.44;4983598;28;20046;-92
2022/06/30 06:50:35;;;;;;;7.63;1.80;;;;;;;49.97;9.84;98646.53;4997770;28;20038;-88
2022/06/30 06:53:03;;;;;;;3.90;1.60;;;;;;;49.86;10.18;98646.44;5011540;28;20030;-88
2022/06/30 06:55:29;;;;;;;6.00;1.60;;;;;;;49.72;9.98;98651.84;5013215;28;20559;-81
2022/06/30 06:57:54;;;;;;;8.48;1.50;;;;;;;49.58;10.40;98645.00;5010601;28;20038;-86
2022/06/30 07:00:21;;;;;;;11.23;1.77;;;;;;;49.50;10.48;98646.13;5016846;28;20103;-85
2022/06/30 07:02:46;;;;;;;8.52;1.70;;;;;;;49.39;10.69;98645.16;5016109;28;20096;-85
2022/06/30 07:05:12;;;;;;;4.53;1.50;;;;;;;49.26;10.77;98639.09;4980693;28;20441;-87
2022/06/30 07:07:38;;;;;;;3.30;1.70;;;;;;;49.12;10.84;98650.00;4998713;28;20460;-84
2022/06/30 07:10:05;;;;;;;8.03;1.90;;;;;;;48.73;12.12;98651.09;4998290;28;20057;-91
2022/06/30 07:12:31;;;;;;;5.60;1.90;;;;;;;48.32;12.08;98639.81;4984391;28;20078;-81
2022/06/30 07:14:57;;;;;;;9.57;1.70;;;;;;;48.04;12.30;98645.66;5016456;28;20034;-87
2022/06/30 07:17:22;;;;;;;5.90;1.77;;;;;;;47.76;12.17;98649.53;4983446;28;20066;-86
2022/06/30 07:19:48;;;;;;;4.20;1.80;;;;;;;47.44;12.70;98639.47;5004865;28;20057;-89
2022/06/30 07:22:14;;;;;;;7.30;1.67;;;;;;;47.29;13.06;98643.94;4982713;28;20410;-87
2022/06/30 07:24:39;;;;;;;6.17;1.83;;;;;;;47.03;11.86;98641.00;4998615;28;20049;-84
2022/06/30 07:27:05;;;;;;;5.23;1.57;;;;;;;46.49;12.39;98640.59;4995395;28;20394;-83
2022/06/30 07:29:31;;;;;;;7.00;1.80;;;;;;;46.16;13.39;98641.03;5002722;28;20026;-82
2022/06/30 07:31:57;;;;;;;7.87;1.70;;;;;;;45.86;13.83;98647.78;4988985;28;20324;-86
2022/06/30 07:34:22;;;;;;;7.13;1.40;;;;;;;45.55;13.64;98637.50;4995333;28;20022;-82
2022/06/30 07:36:48;;;;;;;4.03;1.53;;;;;;;45.18;15.13;98637.63;4995668;28;20406;-86
2022/06/30 07:39:14;;;;;;;5.83;1.67;;;;;;;44.88;14.87;98637.13;4984264;28;20472;-85
2022/06/30 07:41:40;;;;;;;6.30;1.58;;;;;;;44.76;14.09;98640.75;5014594;28;20429;-92
2022/06/30 07:44:07;;;;;;;8.43;1.60;;;;;;;44.66;14.29;98646.69;5007044;28;20034;-91
2022/06/30 07:46:33;;;;;;;4.80;1.40;;;;;;;44.60;14.12;98640.66;5014737;28;20605;-79
2022/06/30 07:48:58;;;;;;;6.40;1.43;;;;;;;44.54;14.20;98631.00;4994639;28;20034;-75
2022/06/30 07:51:24;;;;;;;10.03;1.30;;;;;;;44.51;14.12;98642.69;4995916;28;20120;-72
2022/06/30 07:53:49;;;;;;;7.53;1.40;;;;;;;44.42;13.95;98640.88;5010695;28;20109;-73
2022/06/30 07:56:15;;;;;;;4.30;1.63;;;;;;;44.34;13.98;98649.25;4994487;28;20492;-72
2022/06/30 07:58:40;;;;;;;4.27;1.40;;;;;;;44.23;14.51;98644.22;4994232;28;20090;-74
2022/06/30 08:01:06;;;;;;;3.13;1.40;;;;;;;43.85;15.40;98650.78;4994437;28;20030;-74
2022/06/30 08:03:31;;;;;;;8.63;2.00;;;;;;;43.52;16.30;98645.28;4995448;28;20395;-73
2022/06/30 08:05:57;;;;;;;5.67;1.83;;;;;;;43.39;16.00;98640.91;4994748;28;20532;-73
2022/06/30 08:08:22;;;;;;;5.27;1.70;;;;;;;43.34;15.68;98641.88;5010290;28;20073;-76
2022/06/30 08:10:48;;;;;;;7.13;1.70;;;;;;;43.29;15.51;98642.91;4995162;28;20030;-74
2022/06/30 08:13:13;;;;;;;9.00;1.80;;;;;;;43.29;15.39;98642.09;5010091;28;20110;-75
2022/06/30 08:15:39;;;;;;;7.23;1.60;;;;;;;43.28;15.40;98641.28;5028053;28;20536;-74
2022/06/30 08:18:05;;;;;;;3.97;1.47;;;;;;;43.28;15.18;98645.97;4985000;28;20084;-75
2022/06/30 08:20:30;;;;;;;11.37;1.40;;;;;;;43.20;15.15;98633.94;4997939;28;20076;-74
2022/06/30 08:22:56;;;;;;;4.10;1.37;;;;;;;43.21;15.42;98643.78;5006557;28;20468;-75
2022/06/30 08:25:21;;;;;;;8.47;1.50;;;;;;;43.15;15.40;98636.88;4983470;28;20070;-75
2022/06/30 08:27:47;;;;;;;5.73;1.27;;;;;;;43.12;15.32;98654.84;5002221;28;20041;-74
2022/06/30 08:30:12;;;;;;;3.90;1.23;;;;;;;43.03;14.93;98647.81;4989733;28;20132;-77
2022/06/30 08:32:38;;;;;;;5.27;1.10;;;;;;;42.89;15.08;98640.63;5010876;28;20057;-74
2022/06/30 08:35:04;;;;;;;7.17;1.53;;;;;;;42.77;15.28;98646.84;4996201;28;20120;-76
2022/06/30 08:37:29;;;;;;;3.43;1.10;;;;;;;42.65;15.44;98638.53;5013039;28;20095;-80
2022/06/30 08:42:41;;;;;;;3.40;1.38;;;;;;;42.40;15.94;98654.78;4973340;28;20047;-76
2022/06/30 08:45:19;;;;;;;9.43;1.60;;;;;;;42.16;16.14;98643.59;4972024;28;20073;-77
2022/06/30 08:47:45;;;;;;;6.38;1.30;;;;;;;41.86;16.40;98646.25;4973297;28;20041;-76
2022/06/30 08:50:13;;;;;;;5.35;1.25;;;;;;;41.73;16.54;98640.66;4957368;28;20042;-77
2022/06/30 08:52:48;;;;;;;3.63;1.40;;;;;;;41.62;16.51;98635.84;4941458;28;20134;-77
2022/06/30 08:55:14;;;;;;;6.68;1.58;;;;;;;41.56;16.67;98638.75;4956639;28;20042;-77
2022/06/30 08:57:40;;;;;;;4.78;1.55;;;;;;;41.39;16.80;98636.84;4957174;28;20034;-78
2022/06/30 09:00:07;;;;;;;6.85;1.20;;;;;;;41.25;16.65;98655.34;4957145;28;20038;-78
2022/06/30 09:02:32;;;;;;;10.67;1.60;;;;;;;41.03;16.73;98645.38;4957089;28;20038;-76
2022/06/30 09:04:58;;;;;;;5.03;1.30;;;;;;;40.97;16.87;98641.97;4973063;28;20034;-78
2022/06/30 09:07:24;;;;;;;6.05;1.20;;;;;;;40.69;17.40;98635.94;4957220;28;20062;-75
2022/06/30 09:09:49;;;;;;;4.55;1.15;;;;;;;40.48;17.55;98633.81;4956807;28;20542;-76
2022/06/30 09:12:16;;;;;;;7.05;1.52;;;;;;;40.30;17.72;98632.16;4956948;28;20031;-76
2022/06/30 09:14:48;;;;;;;6.40;1.45;;;;;;;40.21;18.05;98623.09;4956954;28;20048;-77
2022/06/30 09:17:15;;;;;;;10.63;1.52;;;;;;;40.18;18.18;98626.47;4971920;28;20037;-76
2022/06/30 09:20:10;;;;;;;3.63;1.30;;;;;;;39.99;18.19;98635.72;4981104;28;20042;-78
2022/06/30 09:22:37;;;;;;;9.10;1.50;;;;;;;39.85;18.10;98634.97;4956643;28;20074;-77
2022/06/30 09:25:06;;;;;;;5.35;1.38;;;;;;;39.70;18.28;98628.78;4972823;28;20049;-77
2022/06/30 09:27:39;;;;;;;4.63;1.33;;;;;;;39.62;18.45;98627.63;4956292;28;20093;-78
2022/06/30 09:30:12;;;;;;;3.10;1.30;;;;;;;39.42;18.68;98626.16;4970577;28;20101;-77
2022/06/30 09:32:46;;;;;;;4.65;1.30;;;;;;;39.37;18.33;98629.03;4955629;28;20035;-77
2022/06/30 09:35:12;;;;;;;7.00;1.50;;;;;;;39.21;18.54;98625.88;4972315;28;20549;-79
2022/06/30 09:37:38;;;;;;;10.05;1.52;;;;;;;39.01;18.78;98621.66;4972544;28;20030;-77
2022/06/30 09:40:07;;;;;;;3.72;1.30;;;;;;;38.90;19.05;98623.84;4972007;28;20479;-77
2022/06/30 09:42:50;;;;;;;4.25;1.02;;;;;;;38.86;19.15;98622.03;4972470;28;20057;-76
2022/06/30 09:45:16;;;;;;;5.57;1.30;;;;;;;38.79;18.95;98614.25;4972766;28;20122;-77
2022/06/30 09:47:53;;;;;;;5.30;1.50;;;;;;;38.69;19.45;98623.47;4972145;28;20620;-77
2022/06/30 09:50:19;;;;;;;7.90;1.38;;;;;;;38.59;19.53;98615.47;4972092;28;20078;-77
2022/06/30 09:52:45;;;;;;;5.80;1.40;;;;;;;38.45;19.68;98612.75;4971164;28;20042;-76
2022/06/30 09:55:12;;;;;;;5.25;1.40;;;;;;;38.33;19.14;98612.47;4971929;28;20038;-77
2022/06/30 09:57:43;;;;;;;6.18;1.10;;;;;;;38.22;19.37;98608.34;4972123;28;20035;-77
2022/06/30 10:00:10;;;;;;;3.03;1.20;;;;;;;38.14;19.66;98618.00;4995198;28;20379;-76
2022/06/30 10:02:41;;;;;;;3.83;1.23;;;;;;;38.06;19.87;98611.31;5011796;28;20045;-77
2022/06/30 10:05:07;;;;;;;4.78;1.15;;;;;;;37.98;20.06;98612.03;4995874;28;20034;-77
2022/06/30 10:07:34;;;;;;;8.43;1.40;;;;;;;37.83;19.87;98613.94;5013057;28;20037;-76
2022/06/30 10:10:06;;;;;;;2.72;1.13;;;;;;;37.71;20.04;98602.69;5012060;28;20057;-77
2022/06/30 10:12:31;;;;;;;4.70;1.30;;;;;;;37.59;20.11;98608.63;4979850;28;20030;-76
2022/06/30 10:14:57;;;;;;;6.20;1.40;;;;;;;37.53;20.19;98598.09;5011836;28;20560;-77
2022/06/30 10:17:27;;;;;;;6.20;1.40;;;;;;;37.37;20.39;98605.69;5011099;28;20038;-76
2022/06/30 10:19:53;;;;;;;3.00;1.30;;;;;;;37.29;20.26;98596.28;4995193;28;20148;-77
2022/06/30 10:22:19;;;;;;;3.92;1.30;;;;;;;37.20;20.56;98603.50;4979050;28;20030;-76
2022/06/30 10:24:45;;;;;;;8.63;1.40;;;;;;;37.02;20.55;98600.50;4995727;28;20109;-77
2022/06/30 10:27:14;;;;;;;5.78;1.13;;;;;;;36.96;20.82;98600.88;4994945;28;20459;-77
2022/06/30 10:29:49;;;;;;;4.18;1.40;;;;;;;36.81;20.91;98594.53;5012322;28;20037;-76
2022/06/30 10:32:41;;;;;;;9.65;1.52;;;;;;;36.72;20.95;98590.84;4995444;28;20022;-75
2022/06/30 10:35:18;;;;;;;7.50;1.33;;;;;;;36.66;21.53;98587.38;4996691;28;20034;-76
2022/06/30 10:38:06;;;;;;;4.55;1.50;;;;;;;36.65;21.54;98588.47;5011656;28;20022;-76
2022/06/30 10:41:12;;;;;;;3.05;1.20;;;;;;;36.64;21.64;98576.00;4994984;28;20042;-77
2022/06/30 10:44:02;;;;;;;12.25;1.20;;;;;;;36.62;21.76;98586.34;5012819;28;20022;-77
2022/06/30 10:46:28;;;;;;;6.43;1.40;;;;;;;36.58;21.78;98585.34;5012778;28;20559;-75
2022/06/30 10:48:54;;;;;;;3.47;1.20;;;;;;;36.53;21.59;98577.22;4995080;28;20026;-75
2022/06/30 10:51:20;;;;;;;5.35;1.20;;;;;;;36.46;21.83;98580.31;5011344;28;20045;-76
2022/06/30 10:53:46;;;;;;;9.38;1.50;;;;;;;36.41;21.95;98580.38;5011091;28;20409;-75
2022/06/30 10:56:11;;;;;;;10.52;1.45;;;;;;;36.33;21.65;98578.31;5011088;28;20034;-76
2022/06/30 10:58:37;;;;;;;4.25;1.42;;;;;;;36.25;22.22;98574.31;4994896;28;20037;-77
2022/06/30 11:01:05;;;;;;;7.72;1.40;;;;;;;36.19;22.21;98559.94;4995028;28;20068;-76
2022/06/30 11:03:37;;;;;;;3.80;1.20;;;;;;;36.12;21.91;98570.38;5010776;28;20080;-77
2022/06/30 11:06:13;;;;;;;5.00;1.40;;;;;;;36.00;22.30;98561.81;5011222;28;20034;-76
2022/06/30 11:08:39;;;;;;;8.38;1.50;;;;;;;35.89;22.24;98558.41;5011133;28;20058;-75
2022/06/30 11:11:28;;;;;;;6.72;1.30;;;;;;;35.80;22.09;98566.38;5011036;28;20026;-76
2022/06/30 11:14:00;;;;;;;3.90;1.33;;;;;;;35.73;22.59;98562.34;5003578;28;20493;-77
2022/06/30 11:16:25;;;;;;;5.97;1.35;;;;;;;35.67;22.52;98567.00;5010719;28;20034;-77
2022/06/30 11:18:51;;;;;;;8.02;1.58;;;;;;;35.64;22.63;98562.94;4994660;28;20041;-75
2022/06/30 11:21:16;;;;;;;4.93;1.13;;;;;;;35.59;22.72;98560.28;4978676;28;20025;-75
2022/06/30 11:23:44;;;;;;;4.75;1.30;;;;;;;35.56;22.72;98558.16;5010860;28;20386;-75
2022/06/30 11:28:54;;;;;;;7.32;1.58;;;;;;;35.47;22.95;98554.44;4997352;28;20515;-76
2022/06/30 11:31:24;;;;;;;4.25;1.40;;;;;;;35.42;22.77;98541.72;4978266;28;20065;-78
2022/06/30 11:33:57;;;;;;;3.38;1.33;;;;;;;35.41;23.07;98545.53;4994842;28;20095;-78
2022/06/30 11:36:22;;;;;;;3.90;1.30;;;;;;;35.42;22.87;98547.16;4995291;28;20029;-77
2022/06/30 11:38:55;;;;;;;5.28;1.65;;;;;;;35.41;23.05;98547.44;5010852;28;20041;-77
2022/06/30 11:44:09;;;;;;;4.55;1.30;;;;;;;35.35;23.05;98537.75;5014445;28;20049;-77
2022/06/30 11:46:47;;;;;;;6.70;1.27;;;;;;;35.33;23.34;98546.16;4998395;28;20025;-77
2022/06/30 11:49:13;;;;;;;5.30;1.30;;;;;;;35.33;22.98;98546.16;5014360;28;20042;-77
2022/06/30 11:51:38;;;;;;;5.45;1.20;;;;;;;35.31;22.82;98542.91;4981516;28;20385;-76
2022/06/30 11:54:05;;;;;;;7.68;1.40;;;;;;;35.29;23.26;98540.47;5014848;28;20049;-77
2022/06/30 11:56:54;;;;;;;5.20;1.05;;;;;;;35.27;23.23;98542.69;4998094;28;20025;-77